Time;durP1;ratioP1;P1;durP2;ratioP2;P2;SDS_P1;SDS_P2;PMS_P1;PMS_P2;Temp;Humidity;BMP_temperature;BMP_pressure;BME280_temperature;BME280_humidity;BME280_pressure;Samples;Min_cycle;Max_cycle;Signal;HPM_P1;HPM_P2
2023/04/30 00:00:25;;;;;;;12.40;2.95;;;;;;;;;;5094213;27;20039;-80
2023/04/30 00:02:51;;;;;;;8.82;2.53;;;;;;;;;;5103028;27;20449;-80
2023/04/30 00:05:17;;;;;;;10.18;2.92;;;;;;;;;;5092187;27;20036;-80
2023/04/30 00:07:43;;;;;;;9.73;2.95;;;;;;;;;;5088624;27;20046;-80
2023/04/30 00:10:10;;;;;;;10.95;3.15;;;;;;;;;;5088031;27;20042;-80
2023/04/30 00:12:36;;;;;;;7.75;2.78;;;;;;;;;;5089517;27;20070;-80
2023/04/30 00:15:02;;;;;;;13.68;3.78;;;;;;;;;;5090219;27;20078;-80
2023/04/30 00:17:29;;;;;;;8.52;2.70;;;;;;;;;;5068459;27;20068;-80
2023/04/30 00:19:55;;;;;;;6.53;2.53;;;;;;;;;;5089428;27;21887;-81
2023/04/30 00:22:21;;;;;;;9.60;3.40;;;;;;;;;;5090237;27;20075;-80
2023/04/30 00:24:47;;;;;;;9.10;2.60;;;;;;;;;;5091884;27;20485;-80
2023/04/30 00:27:13;;;;;;;12.88;2.90;;;;;;;;;;5094583;27;20047;-80
2023/04/30 00:29:40;;;;;;;8.80;2.92;;;;;;;;;;5092104;27;20050;-80
2023/04/30 00:32:06;;;;;;;9.73;3.22;;;;;;;;;;5089152;27;20507;-80
2023/04/30 00:34:32;;;;;;;13.45;3.25;;;;;;;;;;5088933;27;20092;-79
2023/04/30 00:36:58;;;;;;;9.73;2.83;;;;;;;;;;5094870;27;20047;-79
2023/04/30 00:39:24;;;;;;;16.92;3.10;;;;;;;;;;5088098;27;20042;-80
2023/04/30 00:41:50;;;;;;;10.48;2.75;;;;;;;;;;5088638;27;20407;-80
2023/04/30 00:44:16;;;;;;;17.38;2.83;;;;;;;;;;5083482;27;20052;-80
2023/04/30 00:46:42;;;;;;;13.90;2.50;;;;;;;;;;5090047;27;20035;-80
2023/04/30 00:49:08;;;;;;;11.40;4.28;;;;;;;;;;5085276;27;20135;-80
2023/04/30 00:51:35;;;;;;;9.65;2.95;;;;;;;;;;5085792;27;20043;-80
2023/04/30 00:54:04;;;;;;;12.80;2.80;;;;;;;;;;5086794;27;20036;-80
2023/04/30 00:56:31;;;;;;;7.05;2.60;;;;;;;;;;5086198;27;20047;-80
2023/04/30 00:58:57;;;;;;;6.97;2.80;;;;;;;;;;5085851;27;20499;-80
2023/04/30 01:01:24;;;;;;;8.73;2.67;;;;;;;;;;5085846;27;20555;-80
2023/04/30 01:03:51;;;;;;;10.18;2.80;;;;;;;;;;5087159;27;20051;-80
2023/04/30 01:06:17;;;;;;;6.28;2.67;;;;;;;;;;5091533;27;20035;-80
2023/04/30 01:08:43;;;;;;;10.02;2.53;;;;;;;;;;5087635;27;20127;-80
2023/04/30 01:11:09;;;;;;;10.38;2.45;;;;;;;;;;5093631;27;20392;-80
2023/04/30 01:13:42;;;;;;;7.50;2.65;;;;;;;;;;5066226;27;20064;-80
2023/04/30 01:16:30;;;;;;;10.15;2.35;;;;;;;;;;5099306;27;22599;-80
2023/04/30 01:19:10;;;;;;;8.48;2.25;;;;;;;;;;5089834;27;20054;-80
2023/04/30 01:21:40;;;;;;;4.80;2.35;;;;;;;;;;5090110;27;20049;-80
2023/04/30 01:24:18;;;;;;;10.70;2.50;;;;;;;;;;5087437;27;20057;-80
2023/04/30 01:27:04;;;;;;;4.47;2.10;;;;;;;;;;5085410;27;20160;-80
2023/04/30 01:29:31;;;;;;;7.18;2.65;;;;;;;;;;5087540;27;20123;-79
2023/04/30 01:31:57;;;;;;;11.90;2.78;;;;;;;;;;5088686;27;20479;-80
2023/04/30 01:34:25;;;;;;;7.55;2.75;;;;;;;;;;5086888;27;20036;-79
2023/04/30 01:37:00;;;;;;;10.70;2.22;;;;;;;;;;5086262;27;20054;-79
2023/04/30 01:39:29;;;;;;;8.13;2.28;;;;;;;;;;5086999;27;20461;-80
2023/04/30 01:41:55;;;;;;;8.73;2.00;;;;;;;;;;5071327;27;20050;-79
2023/04/30 01:44:41;;;;;;;5.78;1.60;;;;;;;;;;5085965;27;20156;-80
2023/04/30 01:47:22;;;;;;;4.13;2.00;;;;;;;;;;5088338;27;20044;-80
2023/04/30 01:49:57;;;;;;;3.05;1.30;;;;;;;;;;5088041;27;20086;-80
2023/04/30 01:52:26;;;;;;;5.35;1.10;;;;;;;;;;5085445;27;20092;-80
2023/04/30 01:54:55;;;;;;;7.03;1.73;;;;;;;;;;5084181;27;20184;-80
2023/04/30 01:57:28;;;;;;;2.83;1.50;;;;;;;;;;5084565;27;20124;-80
2023/04/30 01:59:55;;;;;;;7.10;1.70;;;;;;;;;;5091112;27;20048;-80
2023/04/30 02:02:21;;;;;;;3.85;1.60;;;;;;;;;;5090572;27;20395;-80
2023/04/30 02:04:47;;;;;;;12.98;2.30;;;;;;;;;;5089297;27;20160;-80
2023/04/30 02:07:17;;;;;;;6.53;2.08;;;;;;;;;;5089736;27;20127;-80
2023/04/30 02:09:43;;;;;;;4.22;1.35;;;;;;;;;;5088199;27;20083;-80
2023/04/30 02:12:09;;;;;;;5.72;2.25;;;;;;;;;;5086674;27;21573;-80
2023/04/30 02:14:36;;;;;;;2.50;1.23;;;;;;;;;;5088063;27;20067;-80
2023/04/30 02:17:02;;;;;;;1.33;1.23;;;;;;;;;;5088186;27;20551;-80
2023/04/30 02:19:28;;;;;;;1.50;1.40;;;;;;;;;;5085609;27;20061;-81
2023/04/30 02:21:54;;;;;;;3.25;1.20;;;;;;;;;;5088303;27;20055;-80
2023/04/30 02:24:20;;;;;;;1.45;1.20;;;;;;;;;;5088178;27;20039;-80
2023/04/30 02:26:46;;;;;;;1.80;1.70;;;;;;;;;;5062790;28;21189;-80
2023/04/30 02:29:13;;;;;;;7.30;2.28;;;;;;;;;;5088153;27;20147;-80
2023/04/30 02:31:39;;;;;;;6.18;2.17;;;;;;;;;;5080376;27;20044;-80
2023/04/30 02:34:05;;;;;;;5.72;2.85;;;;;;;;;;5084322;27;20119;-80
2023/04/30 02:36:35;;;;;;;4.43;2.10;;;;;;;;;;5086810;27;20039;-80
2023/04/30 02:39:01;;;;;;;4.55;1.90;;;;;;;;;;5070570;28;20048;-81
2023/04/30 02:41:27;;;;;;;3.20;1.88;;;;;;;;;;5089581;27;20047;-80
2023/04/30 02:43:53;;;;;;;3.78;1.80;;;;;;;;;;5085546;27;20051;-80
2023/04/30 02:46:19;;;;;;;3.53;2.08;;;;;;;;;;5079101;27;20035;-80
2023/04/30 02:48:45;;;;;;;6.13;2.70;;;;;;;;;;5085617;27;20079;-80
2023/04/30 02:51:12;;;;;;;5.70;2.20;;;;;;;;;;5083087;27;20050;-80
2023/04/30 02:53:38;;;;;;;8.43;2.40;;;;;;;;;;5081848;27;20044;-80
2023/04/30 02:56:04;;;;;;;9.05;2.35;;;;;;;;;;5087342;27;20049;-80
2023/04/30 02:58:30;;;;;;;7.22;2.92;;;;;;;;;;5085877;27;20480;-79
2023/04/30 03:00:56;;;;;;;8.82;3.10;;;;;;;;;;5085380;27;20047;-80
2023/04/30 03:03:23;;;;;;;4.25;2.30;;;;;;;;;;5059658;27;20138;-80
2023/04/30 03:05:49;;;;;;;8.25;2.55;;;;;;;;;;5081857;27;20035;-80
2023/04/30 03:08:15;;;;;;;7.70;3.10;;;;;;;;;;5087564;27;20046;-80
2023/04/30 03:10:41;;;;;;;7.72;2.40;;;;;;;;;;5083007;27;20040;-80
2023/04/30 03:13:07;;;;;;;7.43;2.67;;;;;;;;;;5088644;27;20062;-80
2023/04/30 03:15:33;;;;;;;6.70;2.78;;;;;;;;;;5088075;27;20039;-80
2023/04/30 03:17:59;;;;;;;7.70;2.80;;;;;;;;;;5088844;28;20062;-80
2023/04/30 03:20:25;;;;;;;7.03;2.67;;;;;;;;;;5089230;27;20084;-80
2023/04/30 03:22:51;;;;;;;6.15;2.70;;;;;;;;;;5102246;27;20039;-80
2023/04/30 03:25:17;;;;;;;9.10;2.88;;;;;;;;;;5070794;27;20503;-80
2023/04/30 03:27:43;;;;;;;12.73;2.92;;;;;;;;;;5086008;27;20165;-80
2023/04/30 03:30:09;;;;;;;5.88;2.80;;;;;;;;;;5079953;28;20051;-80
2023/04/30 03:32:36;;;;;;;7.35;2.90;;;;;;;;;;5089217;28;20040;-80
2023/04/30 03:35:02;;;;;;;8.02;2.72;;;;;;;;;;5089649;27;20048;-80
2023/04/30 03:37:28;;;;;;;11.32;3.05;;;;;;;;;;5074657;28;20129;-80
2023/04/30 03:39:54;;;;;;;6.53;3.05;;;;;;;;;;5087418;27;20048;-80
2023/04/30 03:42:21;;;;;;;7.88;2.97;;;;;;;;;;5089008;27;20096;-80
2023/04/30 03:44:47;;;;;;;10.07;2.85;;;;;;;;;;5090853;27;20040;-81
2023/04/30 03:47:13;;;;;;;4.90;2.53;;;;;;;;;;5086351;27;20049;-80
2023/04/30 03:49:39;;;;;;;8.18;2.80;;;;;;;;;;5087866;27;20590;-80
2023/04/30 03:52:06;;;;;;;11.82;3.00;;;;;;;;;;5088491;27;21884;-80
2023/04/30 03:54:35;;;;;;;6.25;2.40;;;;;;;;;;5065067;28;20035;-80
2023/04/30 03:57:03;;;;;;;8.57;2.58;;;;;;;;;;5087865;27;20032;-79
2023/04/30 03:59:30;;;;;;;6.20;2.75;;;;;;;;;;5085441;27;20043;-81
2023/04/30 04:01:56;;;;;;;6.40;2.47;;;;;;;;;;5086862;27;20157;-80
2023/04/30 04:04:22;;;;;;;6.70;3.35;;;;;;;;;;5083962;27;20055;-80
2023/04/30 04:06:48;;;;;;;6.15;2.97;;;;;;;;;;5085491;27;20051;-80
2023/04/30 04:09:14;;;;;;;13.82;3.72;;;;;;;;;;5086333;27;20054;-80
2023/04/30 04:11:40;;;;;;;5.95;3.42;;;;;;;;;;5086645;28;20170;-80
2023/04/30 04:14:06;;;;;;;13.25;3.22;;;;;;;;;;5043833;27;1112744;-80
2023/04/30 04:16:33;;;;;;;8.63;3.25;;;;;;;;;;5085162;27;20130;-80
2023/04/30 04:18:59;;;;;;;6.93;2.92;;;;;;;;;;5085706;27;20047;-81
2023/04/30 04:21:25;;;;;;;7.03;3.33;;;;;;;;;;5086481;27;20054;-80
2023/04/30 04:23:52;;;;;;;6.22;3.13;;;;;;;;;;5085914;27;20125;-80
2023/04/30 04:26:20;;;;;;;7.43;3.83;;;;;;;;;;5088800;27;20089;-80
2023/04/30 04:28:46;;;;;;;6.30;2.88;;;;;;;;;;5084392;27;20259;-80
2023/04/30 04:31:13;;;;;;;8.27;3.00;;;;;;;;;;5087286;27;20063;-80
2023/04/30 04:33:39;;;;;;;7.82;2.92;;;;;;;;;;5085641;27;20175;-80
2023/04/30 04:36:05;;;;;;;6.95;3.33;;;;;;;;;;5086960;27;20036;-81
2023/04/30 04:38:31;;;;;;;5.85;2.83;;;;;;;;;;5087897;27;20162;-81
2023/04/30 04:40:58;;;;;;;7.50;3.78;;;;;;;;;;5086632;27;20448;-81
2023/04/30 04:43:24;;;;;;;9.95;3.90;;;;;;;;;;5084528;27;20051;-81
2023/04/30 04:45:51;;;;;;;7.15;3.45;;;;;;;;;;5088216;27;20039;-81
2023/04/30 04:48:17;;;;;;;6.55;3.30;;;;;;;;;;5086944;27;20047;-81
2023/04/30 04:50:43;;;;;;;5.55;3.45;;;;;;;;;;5089342;27;20043;-79
2023/04/30 04:53:09;;;;;;;10.10;3.35;;;;;;;;;;5090231;27;20558;-80
2023/04/30 04:55:35;;;;;;;8.63;3.20;;;;;;;;;;5088088;27;20043;-80
2023/04/30 04:58:01;;;;;;;10.70;3.38;;;;;;;;;;5087814;27;20158;-80
2023/04/30 05:00:28;;;;;;;7.78;3.63;;;;;;;;;;5088185;27;20051;-81
2023/04/30 05:02:54;;;;;;;17.15;3.70;;;;;;;;;;5093068;27;20040;-80
2023/04/30 05:05:20;;;;;;;9.25;3.38;;;;;;;;;;5089573;27;20036;-81
2023/04/30 05:07:49;;;;;;;13.00;3.22;;;;;;;;;;5084872;27;20526;-82
2023/04/30 05:10:15;;;;;;;12.02;3.63;;;;;;;;;;5088777;27;20062;-81
2023/04/30 05:12:41;;;;;;;12.07;4.10;;;;;;;;;;5089769;27;20040;-82
2023/04/30 05:15:07;;;;;;;6.82;3.45;;;;;;;;;;5087981;27;20171;-82
2023/04/30 05:17:33;;;;;;;8.25;3.92;;;;;;;;;;5087560;27;20036;-81
2023/04/30 05:20:00;;;;;;;15.95;4.25;;;;;;;;;;5083782;27;20040;-81
2023/04/30 05:22:26;;;;;;;11.57;4.35;;;;;;;;;;5081346;27;20047;-81
2023/04/30 05:24:52;;;;;;;17.33;5.40;;;;;;;;;;5085422;27;20544;-81
2023/04/30 05:27:18;;;;;;;14.65;4.43;;;;;;;;;;5087130;27;20051;-81
2023/04/30 05:29:44;;;;;;;13.23;5.20;;;;;;;;;;5088717;27;20440;-81
2023/04/30 05:32:10;;;;;;;19.80;5.25;;;;;;;;;;5083875;27;20465;-81
2023/04/30 05:34:36;;;;;;;13.93;4.28;;;;;;;;;;5084844;27;20039;-82
2023/04/30 05:37:02;;;;;;;11.82;5.45;;;;;;;;;;5087606;27;20047;-81
2023/04/30 05:39:29;;;;;;;9.35;5.10;;;;;;;;;;5102557;27;20063;-81
2023/04/30 05:41:55;;;;;;;11.45;5.68;;;;;;;;;;5071242;27;20067;-81
2023/04/30 05:44:21;;;;;;;13.05;4.60;;;;;;;;;;5079213;27;20164;-82
2023/04/30 05:46:47;;;;;;;11.48;4.75;;;;;;;;;;5090524;27;20039;-82
2023/04/30 05:49:13;;;;;;;13.40;5.15;;;;;;;;;;5070126;27;20074;-82
2023/04/30 05:51:39;;;;;;;19.40;6.05;;;;;;;;;;5086077;27;20057;-82
2023/04/30 05:54:05;;;;;;;16.25;5.32;;;;;;;;;;5087059;27;20068;-81
2023/04/30 05:56:31;;;;;;;12.57;5.40;;;;;;;;;;5082131;27;20073;-81
2023/04/30 05:58:57;;;;;;;17.35;6.40;;;;;;;;;;5087030;27;20083;-81
2023/04/30 06:01:27;;;;;;;12.13;6.30;;;;;;;;;;5086996;27;20108;-81
2023/04/30 06:03:53;;;;;;;13.50;5.43;;;;;;;;;;5087226;27;20145;-81
2023/04/30 06:06:19;;;;;;;14.57;5.82;;;;;;;;;;5080146;27;20486;-81
2023/04/30 06:08:45;;;;;;;11.13;6.18;;;;;;;;;;5088456;27;20047;-81
2023/04/30 06:11:12;;;;;;;21.88;6.50;;;;;;;;;;5088010;27;20510;-81
2023/04/30 06:13:39;;;;;;;9.70;5.03;;;;;;;;;;5086423;27;20172;-81
2023/04/30 06:16:06;;;;;;;15.55;5.25;;;;;;;;;;5078223;27;20142;-81
2023/04/30 06:18:32;;;;;;;13.95;5.60;;;;;;;;;;5086719;27;20154;-82
2023/04/30 06:20:58;;;;;;;13.00;5.45;;;;;;;;;;5088720;27;20042;-81
2023/04/30 06:23:24;;;;;;;17.30;5.30;;;;;;;;;;5087250;27;20042;-80
2023/04/30 06:25:50;;;;;;;17.52;5.63;;;;;;;;;;5085125;27;20696;-80
2023/04/30 06:28:16;;;;;;;17.08;6.50;;;;;;;;;;5083311;27;20039;-80
2023/04/30 06:30:43;;;;;;;13.32;5.60;;;;;;;;;;5083117;27;20032;-81
2023/04/30 06:33:09;;;;;;;13.40;5.43;;;;;;;;;;5082269;27;20444;-83
2023/04/30 06:35:35;;;;;;;16.05;5.30;;;;;;;;;;5072246;27;20039;-81
2023/04/30 06:38:01;;;;;;;14.20;5.20;;;;;;;;;;5082360;27;21234;-81
2023/04/30 06:40:27;;;;;;;15.10;4.53;;;;;;;;;;5080014;27;20051;-81
2023/04/30 06:42:53;;;;;;;15.25;4.57;;;;;;;;;;5081612;27;20146;-80
2023/04/30 06:45:20;;;;;;;10.60;4.40;;;;;;;;;;5089218;27;20047;-81
2023/04/30 06:47:46;;;;;;;14.00;4.78;;;;;;;;;;5099329;27;20047;-80
2023/04/30 06:50:14;;;;;;;15.55;4.70;;;;;;;;;;5083449;27;20110;-80
2023/04/30 06:52:40;;;;;;;17.98;4.78;;;;;;;;;;5084374;27;20586;-80
2023/04/30 06:55:08;;;;;;;14.68;5.00;;;;;;;;;;5084716;27;20554;-80
2023/04/30 06:57:36;;;;;;;14.65;4.43;;;;;;;;;;5077625;27;20043;-81
2023/04/30 07:00:03;;;;;;;10.65;3.92;;;;;;;;;;5081230;27;20129;-81
2023/04/30 07:02:29;;;;;;;14.32;3.92;;;;;;;;;;5087394;27;20036;-80
2023/04/30 07:04:55;;;;;;;14.43;3.28;;;;;;;;;;5077373;28;20073;-80
2023/04/30 07:07:22;;;;;;;12.55;3.63;;;;;;;;;;5083525;27;20158;-80
2023/04/30 07:09:48;;;;;;;14.82;3.00;;;;;;;;;;5080947;27;20158;-79
2023/04/30 07:12:14;;;;;;;12.85;2.88;;;;;;;;;;5079739;27;20515;-79
2023/04/30 07:14:40;;;;;;;5.88;2.67;;;;;;;;;;5081945;27;20073;-80
2023/04/30 07:17:06;;;;;;;10.98;2.75;;;;;;;;;;5083848;27;20139;-80
2023/04/30 07:19:33;;;;;;;9.43;2.90;;;;;;;;;;5077573;28;20663;-80
2023/04/30 07:21:59;;;;;;;13.05;3.05;;;;;;;;;;5062043;28;20283;-78
2023/04/30 07:24:25;;;;;;;11.80;2.80;;;;;;;;;;5074603;28;20058;-79
2023/04/30 07:26:51;;;;;;;12.48;3.40;;;;;;;;;;5078575;27;20043;-81
2023/04/30 07:29:17;;;;;;;17.17;3.30;;;;;;;;;;5078793;28;20044;-82
2023/04/30 07:31:43;;;;;;;11.65;3.45;;;;;;;;;;5087372;27;20486;-82
2023/04/30 07:34:09;;;;;;;12.40;2.90;;;;;;;;;;5087050;28;20048;-82
2023/04/30 07:36:37;;;;;;;9.55;3.35;;;;;;;;;;5062138;28;20073;-82
2023/04/30 07:39:04;;;;;;;15.93;2.67;;;;;;;;;;5084591;27;20043;-82
2023/04/30 07:41:30;;;;;;;8.98;2.60;;;;;;;;;;5083394;28;20057;-82
2023/04/30 07:43:56;;;;;;;7.72;2.38;;;;;;;;;;5085597;28;20183;-81
2023/04/30 07:46:23;;;;;;;8.82;2.50;;;;;;;;;;5091144;28;20040;-81
2023/04/30 07:48:49;;;;;;;10.52;2.78;;;;;;;;;;5090906;28;20055;-81
2023/04/30 07:51:17;;;;;;;9.93;2.58;;;;;;;;;;5104474;27;20042;-80
2023/04/30 07:53:43;;;;;;;14.07;3.15;;;;;;;;;;5099381;27;20495;-81
2023/04/30 07:56:09;;;;;;;9.00;2.42;;;;;;;;;;5092143;27;20043;-82
2023/04/30 07:58:38;;;;;;;9.25;2.83;;;;;;;;;;5094369;27;20047;-81
2023/04/30 08:01:07;;;;;;;13.48;2.72;;;;;;;;;;5093264;27;20103;-81
2023/04/30 08:03:33;;;;;;;6.78;2.28;;;;;;;;;;5094693;27;20143;-82
2023/04/30 08:05:59;;;;;;;8.40;2.53;;;;;;;;;;5094429;27;20492;-81
2023/04/30 08:08:25;;;;;;;14.63;3.13;;;;;;;;;;5072453;27;20042;-82
2023/04/30 08:10:51;;;;;;;13.80;2.88;;;;;;;;;;5087065;27;20070;-81
2023/04/30 08:13:19;;;;;;;8.85;2.63;;;;;;;;;;5081826;27;20074;-81
2023/04/30 08:15:45;;;;;;;10.75;2.63;;;;;;;;;;5087447;27;20204;-80
2023/04/30 08:18:13;;;;;;;9.95;2.35;;;;;;;;;;5085270;27;20059;-81
2023/04/30 08:20:40;;;;;;;12.30;2.47;;;;;;;;;;5084873;27;20547;-81
2023/04/30 08:23:06;;;;;;;8.35;2.80;;;;;;;;;;5063623;27;20114;-80
2023/04/30 08:25:33;;;;;;;11.43;2.75;;;;;;;;;;5070315;27;20032;-81
2023/04/30 08:27:59;;;;;;;7.32;2.60;;;;;;;;;;5086114;27;20055;-80
2023/04/30 08:30:25;;;;;;;9.40;3.03;;;;;;;;;;5086119;27;20135;-80
2023/04/30 08:32:51;;;;;;;8.50;3.13;;;;;;;;;;5085880;27;20268;-81
2023/04/30 08:35:17;;;;;;;16.42;2.47;;;;;;;;;;5082858;27;21769;-82
2023/04/30 08:37:44;;;;;;;8.82;2.55;;;;;;;;;;5084817;27;20795;-81
2023/04/30 08:40:10;;;;;;;14.95;3.08;;;;;;;;;;5088018;27;20071;-81
2023/04/30 08:42:37;;;;;;;6.47;3.05;;;;;;;;;;5087497;27;20622;-81
2023/04/30 08:45:04;;;;;;;13.40;3.20;;;;;;;;;;5090682;27;20047;-81
2023/04/30 08:47:30;;;;;;;11.05;3.10;;;;;;;;;;5093695;27;20450;-81
2023/04/30 08:49:56;;;;;;;11.82;2.88;;;;;;;;;;5081596;27;20797;-81
2023/04/30 08:52:24;;;;;;;12.23;2.40;;;;;;;;;;5085300;27;20043;-82
2023/04/30 08:54:53;;;;;;;12.55;3.05;;;;;;;;;;5081020;27;20066;-81
2023/04/30 08:57:19;;;;;;;11.45;3.47;;;;;;;;;;5082661;27;20126;-80
2023/04/30 08:59:48;;;;;;;10.20;2.95;;;;;;;;;;5080172;27;20043;-81
2023/04/30 09:02:14;;;;;;;9.25;3.00;;;;;;;;;;5081609;27;21476;-81
2023/04/30 09:04:40;;;;;;;9.75;2.92;;;;;;;;;;5066126;27;20375;-81
2023/04/30 09:07:06;;;;;;;12.07;2.70;;;;;;;;;;5082587;27;20126;-81
2023/04/30 09:09:38;;;;;;;11.50;2.95;;;;;;;;;;5086731;27;20747;-81
2023/04/30 09:12:18;;;;;;;10.10;2.72;;;;;;;;;;5082001;27;20039;-81
2023/04/30 09:15:01;;;;;;;10.93;2.92;;;;;;;;;;5085870;27;20064;-82
2023/04/30 09:17:27;;;;;;;17.00;6.07;;;;;;;;;;5086120;27;20071;-81
2023/04/30 09:19:53;;;;;;;8.32;3.10;;;;;;;;;;5086435;27;20050;-82
2023/04/30 09:22:20;;;;;;;12.02;3.53;;;;;;;;;;5062519;27;20050;-82
2023/04/30 09:24:48;;;;;;;13.63;3.85;;;;;;;;;;5060235;28;20167;-82
2023/04/30 09:27:23;;;;;;;12.50;3.28;;;;;;;;;;5078340;27;20046;-82
2023/04/30 09:29:49;;;;;;;8.93;2.67;;;;;;;;;;5088060;27;20501;-82
2023/04/30 09:32:15;;;;;;;8.27;2.47;;;;;;;;;;5092115;27;21657;-82
2023/04/30 09:34:42;;;;;;;9.98;3.08;;;;;;;;;;5091104;27;20046;-82
2023/04/30 09:37:08;;;;;;;12.57;3.80;;;;;;;;;;5082448;27;20096;-82
2023/04/30 09:39:45;;;;;;;10.38;2.55;;;;;;;;;;5052748;27;20042;-81
2023/04/30 09:42:12;;;;;;;6.38;2.38;;;;;;;;;;5086206;27;20071;-81
2023/04/30 09:44:39;;;;;;;10.50;3.17;;;;;;;;;;5081802;27;20132;-79
2023/04/30 09:47:11;;;;;;;6.28;2.20;;;;;;;;;;5077961;27;22342;-80
2023/04/30 09:49:37;;;;;;;8.10;2.75;;;;;;;;;;5085841;27;20559;-80
2023/04/30 09:52:06;;;;;;;9.45;2.50;;;;;;;;;;5083203;27;20043;-80
2023/04/30 09:54:32;;;;;;;8.73;4.28;;;;;;;;;;5083262;27;20047;-80
2023/04/30 09:57:00;;;;;;;10.20;3.17;;;;;;;;;;5085438;27;20039;-80
2023/04/30 09:59:30;;;;;;;7.45;2.45;;;;;;;;;;5085261;27;20137;-80
2023/04/30 10:02:00;;;;;;;11.00;3.03;;;;;;;;;;5095941;27;20039;-81
2023/04/30 10:04:39;;;;;;;5.82;2.50;;;;;;;;;;5082913;27;20040;-71
2023/04/30 10:07:07;;;;;;;9.02;3.30;;;;;;;;;;5077830;27;20063;-71
2023/04/30 10:09:41;;;;;;;9.35;3.13;;;;;;;;;;5098491;27;20482;-71
2023/04/30 10:12:11;;;;;;;11.50;2.33;;;;;;;;;;5079915;27;20054;-71
2023/04/30 10:14:37;;;;;;;8.23;2.50;;;;;;;;;;5066646;27;20058;-71
2023/04/30 10:17:08;;;;;;;10.15;3.03;;;;;;;;;;5083606;27;20052;-71
2023/04/30 10:19:40;;;;;;;5.35;2.45;;;;;;;;;;5078819;27;20079;-71
2023/04/30 10:22:07;;;;;;;5.88;2.13;;;;;;;;;;5083471;27;20052;-71
2023/04/30 10:24:33;;;;;;;6.53;2.90;;;;;;;;;;5079565;27;20088;-71
2023/04/30 10:26:59;;;;;;;8.05;3.15;;;;;;;;;;5084494;27;20031;-70
2023/04/30 10:29:25;;;;;;;9.43;2.63;;;;;;;;;;5080942;27;20047;-71
2023/04/30 10:31:52;;;;;;;8.30;2.67;;;;;;;;;;5075636;27;20503;-70
2023/04/30 10:34:38;;;;;;;10.98;3.33;;;;;;;;;;5080796;27;20047;-70
2023/04/30 10:37:11;;;;;;;7.95;2.40;;;;;;;;;;5095894;27;20046;-70
2023/04/30 10:39:38;;;;;;;4.82;1.70;;;;;;;;;;5084395;27;20051;-72
2023/04/30 10:42:05;;;;;;;6.47;2.28;;;;;;;;;;5078338;27;20161;-72
2023/04/30 10:44:36;;;;;;;14.43;4.97;;;;;;;;;;5082631;27;20870;-72
2023/04/30 10:47:02;;;;;;;10.75;2.60;;;;;;;;;;5080333;27;20051;-71
2023/04/30 10:49:29;;;;;;;4.78;2.10;;;;;;;;;;5065400;28;20060;-72
2023/04/30 10:51:59;;;;;;;6.82;2.60;;;;;;;;;;5084544;27;20039;-71
2023/04/30 10:54:30;;;;;;;5.60;2.30;;;;;;;;;;5083400;28;20564;-72
2023/04/30 10:57:19;;;;;;;5.93;2.72;;;;;;;;;;5082272;27;20043;-80
2023/04/30 10:59:48;;;;;;;16.30;3.17;;;;;;;;;;5084708;27;20063;-81
2023/04/30 11:02:17;;;;;;;7.10;2.30;;;;;;;;;;5085361;27;20066;-80
2023/04/30 11:05:02;;;;;;;7.13;2.33;;;;;;;;;;5080952;27;20036;-81
2023/04/30 11:07:28;;;;;;;11.32;2.60;;;;;;;;;;5084038;27;20055;-80
2023/04/30 11:09:57;;;;;;;10.85;2.70;;;;;;;;;;5080144;28;20047;-81
2023/04/30 11:12:28;;;;;;;6.72;2.22;;;;;;;;;;5082789;27;20570;-82
2023/04/30 11:15:12;;;;;;;13.77;1.95;;;;;;;;;;5086785;28;20871;-81
2023/04/30 11:17:38;;;;;;;4.80;1.85;;;;;;;;;;5087054;27;20107;-80
2023/04/30 11:20:04;;;;;;;6.13;1.98;;;;;;;;;;5084857;27;20047;-82
2023/04/30 11:22:34;;;;;;;7.72;2.28;;;;;;;;;;5083544;27;20040;-81
2023/04/30 11:25:01;;;;;;;5.68;2.10;;;;;;;;;;5087245;28;20054;-81
2023/04/30 11:27:28;;;;;;;7.28;2.58;;;;;;;;;;5091213;27;20031;-81
2023/04/30 11:29:55;;;;;;;5.32;2.20;;;;;;;;;;5097506;27;20038;-79
2023/04/30 11:32:21;;;;;;;7.85;1.92;;;;;;;;;;5091661;27;20118;-79
2023/04/30 11:34:48;;;;;;;8.75;2.42;;;;;;;;;;5081772;27;20051;-78
2023/04/30 11:37:22;;;;;;;7.85;2.38;;;;;;;;;;5088306;27;21757;-79
2023/04/30 11:39:48;;;;;;;7.45;2.10;;;;;;;;;;5089019;27;20034;-79
2023/04/30 11:42:18;;;;;;;4.75;1.83;;;;;;;;;;5090090;27;20043;-78
2023/04/30 11:44:45;;;;;;;4.80;2.03;;;;;;;;;;5090312;27;20062;-79
2023/04/30 11:47:13;;;;;;;5.78;2.58;;;;;;;;;;5088440;27;20496;-80
2023/04/30 11:49:39;;;;;;;5.82;1.60;;;;;;;;;;5091285;27;20054;-80
2023/04/30 11:52:07;;;;;;;5.47;1.85;;;;;;;;;;5091996;27;20048;-80
2023/04/30 11:54:34;;;;;;;7.53;2.75;;;;;;;;;;5086215;27;20488;-79
2023/04/30 11:57:03;;;;;;;7.88;2.20;;;;;;;;;;5098316;27;20071;-81
2023/04/30 11:59:29;;;;;;;6.53;2.10;;;;;;;;;;5095392;27;20043;-80
2023/04/30 12:01:56;;;;;;;7.13;2.42;;;;;;;;;;5094092;27;20040;-80
2023/04/30 12:04:22;;;;;;;6.07;1.85;;;;;;;;;;5100173;27;20031;-82
2023/04/30 12:06:48;;;;;;;2.55;1.77;;;;;;;;;;5094964;27;20079;-79
2023/04/30 12:09:14;;;;;;;8.82;2.22;;;;;;;;;;5094795;27;20062;-79
2023/04/30 12:11:40;;;;;;;5.53;1.80;;;;;;;;;;5094993;27;21447;-80
2023/04/30 12:14:11;;;;;;;5.78;2.40;;;;;;;;;;5090811;27;20119;-79
2023/04/30 12:16:49;;;;;;;6.90;2.72;;;;;;;;;;5095990;27;20043;-80
2023/04/30 12:19:15;;;;;;;11.90;2.22;;;;;;;;;;5091129;27;20096;-80
2023/04/30 12:21:46;;;;;;;5.60;1.98;;;;;;;;;;5095344;27;20054;-79
2023/04/30 12:24:16;;;;;;;6.90;2.08;;;;;;;;;;5093985;27;20043;-80
2023/04/30 12:26:42;;;;;;;8.65;2.30;;;;;;;;;;5091172;27;20058;-80
2023/04/30 12:29:15;;;;;;;5.85;1.75;;;;;;;;;;5093493;27;20043;-79
2023/04/30 12:31:42;;;;;;;5.97;2.25;;;;;;;;;;5090821;27;20571;-79
2023/04/30 12:34:09;;;;;;;5.20;1.95;;;;;;;;;;5086367;27;20414;-80
2023/04/30 12:36:35;;;;;;;4.60;2.30;;;;;;;;;;5086213;27;20115;-80
2023/04/30 12:39:22;;;;;;;5.82;2.08;;;;;;;;;;5089851;27;20069;-80
2023/04/30 12:41:48;;;;;;;5.53;2.13;;;;;;;;;;5090622;27;20040;-80
2023/04/30 12:44:19;;;;;;;4.32;2.30;;;;;;;;;;5091666;27;20043;-80
2023/04/30 12:46:46;;;;;;;4.10;1.58;;;;;;;;;;5085522;27;20484;-79
2023/04/30 12:49:12;;;;;;;3.90;2.03;;;;;;;;;;5088075;27;20047;-80
2023/04/30 12:51:40;;;;;;;4.40;2.03;;;;;;;;;;5085463;27;20040;-80
2023/04/30 12:54:06;;;;;;;3.95;2.00;;;;;;;;;;5084380;27;20050;-79
2023/04/30 12:56:32;;;;;;;5.28;1.90;;;;;;;;;;5083287;27;20053;-79
2023/04/30 12:58:58;;;;;;;4.70;1.90;;;;;;;;;;5089503;27;20101;-79
2023/04/30 13:01:24;;;;;;;1.98;1.40;;;;;;;;;;5083285;27;20121;-78
2023/04/30 13:03:52;;;;;;;2.90;1.85;;;;;;;;;;5091989;27;21981;-79
2023/04/30 13:06:18;;;;;;;4.05;2.00;;;;;;;;;;5102679;27;20100;-79
2023/04/30 13:08:44;;;;;;;3.92;1.50;;;;;;;;;;5081353;27;20039;-72
2023/04/30 13:11:10;;;;;;;2.10;1.50;;;;;;;;;;5082654;27;20683;-71
2023/04/30 13:13:36;;;;;;;2.65;1.25;;;;;;;;;;5073309;27;20107;-71
2023/04/30 13:16:04;;;;;;;3.15;1.30;;;;;;;;;;5085204;27;20092;-69
2023/04/30 13:18:31;;;;;;;1.70;1.00;;;;;;;;;;5085314;27;20044;-70
2023/04/30 13:20:57;;;;;;;2.53;1.38;;;;;;;;;;5084682;27;21591;-71
2023/04/30 13:23:23;;;;;;;2.47;1.30;;;;;;;;;;5056957;27;20197;-70
2023/04/30 13:25:49;;;;;;;3.50;1.23;;;;;;;;;;5078158;27;21012;-71
2023/04/30 13:28:16;;;;;;;2.67;1.60;;;;;;;;;;5082867;27;20122;-70
2023/04/30 13:30:42;;;;;;;2.42;1.45;;;;;;;;;;5083147;27;20092;-71
2023/04/30 13:33:08;;;;;;;4.55;1.50;;;;;;;;;;5083407;27;20062;-71
2023/04/30 13:35:34;;;;;;;5.28;1.60;;;;;;;;;;5078783;27;20039;-80
2023/04/30 13:38:01;;;;;;;4.03;1.77;;;;;;;;;;5082483;27;20039;-81
2023/04/30 13:40:27;;;;;;;4.93;1.48;;;;;;;;;;5076536;27;20032;-81
2023/04/30 13:42:53;;;;;;;11.68;2.40;;;;;;;;;;5085292;27;20075;-80
2023/04/30 13:45:19;;;;;;;4.38;1.30;;;;;;;;;;5082333;27;20146;-71
2023/04/30 13:47:46;;;;;;;4.28;1.45;;;;;;;;;;5083803;27;20086;-71
2023/04/30 13:50:12;;;;;;;5.07;1.30;;;;;;;;;;5085049;27;20078;-79
2023/04/30 13:52:38;;;;;;;6.85;1.17;;;;;;;;;;5083349;27;20039;-79
2023/04/30 13:55:05;;;;;;;1.48;1.05;;;;;;;;;;5086331;27;22316;-79
2023/04/30 13:57:34;;;;;;;2.30;1.20;;;;;;;;;;5083423;27;20126;-71
2023/04/30 14:00:01;;;;;;;2.85;1.20;;;;;;;;;;5082614;27;20480;-80
2023/04/30 14:02:27;;;;;;;2.53;1.10;;;;;;;;;;5074955;27;20126;-80
2023/04/30 14:04:53;;;;;;;2.63;1.23;;;;;;;;;;5080093;27;20050;-80
2023/04/30 14:07:20;;;;;;;2.38;1.20;;;;;;;;;;5083779;27;20119;-79
2023/04/30 14:09:46;;;;;;;1.50;1.20;;;;;;;;;;5074901;27;20076;-70
2023/04/30 14:12:12;;;;;;;1.67;0.90;;;;;;;;;;5078810;27;20050;-70
2023/04/30 14:14:39;;;;;;;4.53;1.50;;;;;;;;;;5082204;27;20070;-70
2023/04/30 14:17:05;;;;;;;5.28;1.20;;;;;;;;;;5093248;27;20112;-70
2023/04/30 14:19:31;;;;;;;2.97;1.35;;;;;;;;;;5084678;27;20864;-70
2023/04/30 14:21:58;;;;;;;4.15;1.83;;;;;;;;;;5082741;27;20043;-70
2023/04/30 14:24:24;;;;;;;5.07;1.60;;;;;;;;;;5077610;27;20043;-70
2023/04/30 14:26:50;;;;;;;3.17;1.40;;;;;;;;;;5078856;27;20047;-81
2023/04/30 14:29:18;;;;;;;3.25;1.50;;;;;;;;;;5087514;27;20467;-80
2023/04/30 14:31:44;;;;;;;3.90;1.50;;;;;;;;;;5088197;27;20070;-71
2023/04/30 14:34:10;;;;;;;4.65;1.40;;;;;;;;;;5084929;27;20040;-71
2023/04/30 14:36:37;;;;;;;7.25;2.10;;;;;;;;;;5065516;28;20040;-80
2023/04/30 14:39:03;;;;;;;8.27;2.05;;;;;;;;;;5085262;27;20078;-79